Terminal Aerodrome Forecast
Issued by NWS

Home | Current Version | Previous Version | Text Only | Print | Product List | Glossary On
Versions: 1 2 3 4 5 6 7 8 9 10 11 12 13 14 15 16 17 18 19 20 21 22 23 24 25 26 27 28 29 30
526
FTUS43 KSGF 271415 AAB
TAFJLN
TAF AMD
KJLN 271415Z 2714/2812 35007KT 3SM BR OVC004
     FM271600 34008KT P6SM OVC008
     FM280000 36006KT P6SM OVC015
     FM280700 VRB04KT 6SM BR BKN015=

USA.gov is the U.S. government's official web portal to all federal, state and local government web resources and services.